Green City, Missouri
Current Conditions -  °F | °C
As of 9:55 AM on Sunday 23 Nov 2014 (Local Time) from KIRK Reporting Station
Light Rain Light Rain  
Wind Chill: 53°   Ceiling: 600
Heat Index: 53°   Visibility: 4mi
Dew Point: 53°   Wind: 14mph
Humidity: 100%   Direction: 170°S
Pressure: 29.54"   Gusts: NA
Location:  40.27°N, 92.95°W
Report Text: KIRK 231555Z AUTO 17012KT 4SM -RA BR OVC006 12/12 A2954 RMK AO2 CIG 005V010 SLP005 P0008 T01170117
Loading
Personal Weather Stations






























Interactive Weather Map New forecast layout! Learn more

10-Day Weather Forecast

Advertisements
Track Severe Weather on mobile